sensor_id;sensor_type;location;lat;lon;timestamp;P1;durP1;ratioP1;P2;durP2;ratioP2
75620;SDS011;64574;48.506;-2.750;2023-04-25T16:33:57;8.85;;;2.70;;
75620;SDS011;64574;48.506;-2.750;2023-04-25T16:36:23;6.78;;;2.75;;
75620;SDS011;64574;48.506;-2.750;2023-04-25T16:38:48;7.00;;;2.90;;
75620;SDS011;64574;48.506;-2.750;2023-04-25T16:41:14;6.05;;;2.58;;
75620;SDS011;64574;48.506;-2.750;2023-04-25T16:43:40;7.45;;;2.50;;
75620;SDS011;64574;48.506;-2.750;2023-04-25T16:46:05;7.47;;;3.10;;
75620;SDS011;64574;48.506;-2.750;2023-04-25T16:48:31;6.75;;;3.55;;
75620;SDS011;64574;48.506;-2.750;2023-04-25T16:50:57;6.85;;;3.22;;
75620;SDS011;64574;48.506;-2.750;2023-04-25T16:53:23;7.82;;;2.92;;
75620;SDS011;64574;48.506;-2.750;2023-04-25T16:55:49;6.15;;;3.13;;
75620;SDS011;64574;48.506;-2.750;2023-04-25T16:58:15;4.22;;;2.40;;
75620;SDS011;64574;48.506;-2.750;2023-04-25T17:00:40;6.35;;;2.88;;
75620;SDS011;64574;48.506;-2.750;2023-04-25T17:03:06;8.00;;;3.28;;
75620;SDS011;64574;48.506;-2.750;2023-04-25T17:05:33;7.95;;;2.60;;
75620;SDS011;64574;48.506;-2.750;2023-04-25T17:07:59;8.50;;;3.20;;
75620;SDS011;64574;48.506;-2.750;2023-04-25T17:10:24;7.82;;;2.83;;
75620;SDS011;64574;48.506;-2.750;2023-04-25T17:12:51;5.38;;;2.60;;
75620;SDS011;64574;48.506;-2.750;2023-04-25T17:15:16;5.88;;;2.40;;
75620;SDS011;64574;48.506;-2.750;2023-04-25T17:17:42;7.30;;;3.00;;
75620;SDS011;64574;48.506;-2.750;2023-04-25T17:20:08;6.00;;;3.00;;
75620;SDS011;64574;48.506;-2.750;2023-04-25T17:22:34;7.13;;;2.80;;
75620;SDS011;64574;48.506;-2.750;2023-04-25T17:25:03;7.55;;;2.53;;
75620;SDS011;64574;48.506;-2.750;2023-04-25T17:27:29;12.98;;;3.33;;
75620;SDS011;64574;48.506;-2.750;2023-04-25T17:29:55;7.63;;;2.83;;
75620;SDS011;64574;48.506;-2.750;2023-04-25T17:32:21;7.00;;;3.20;;
75620;SDS011;64574;48.506;-2.750;2023-04-25T17:34:47;7.82;;;2.72;;
75620;SDS011;64574;48.506;-2.750;2023-04-25T17:37:15;10.27;;;3.35;;
75620;SDS011;64574;48.506;-2.750;2023-04-25T17:39:42;7.18;;;2.70;;
75620;SDS011;64574;48.506;-2.750;2023-04-25T17:42:08;8.18;;;2.75;;
75620;SDS011;64574;48.506;-2.750;2023-04-25T17:44:34;5.75;;;2.80;;
75620;SDS011;64574;48.506;-2.750;2023-04-25T17:47:00;11.13;;;3.45;;
75620;SDS011;64574;48.506;-2.750;2023-04-25T17:49:26;6.82;;;2.35;;
75620;SDS011;64574;48.506;-2.750;2023-04-25T17:51:52;8.20;;;2.80;;
75620;SDS011;64574;48.506;-2.750;2023-04-25T17:54:18;9.98;;;2.70;;
75620;SDS011;64574;48.506;-2.750;2023-04-25T17:56:46;8.98;;;3.55;;
75620;SDS011;64574;48.506;-2.750;2023-04-25T17:59:12;8.85;;;2.80;;
75620;SDS011;64574;48.506;-2.750;2023-04-25T18:01:38;7.10;;;2.60;;
75620;SDS011;64574;48.506;-2.750;2023-04-25T18:04:03;9.10;;;3.70;;
75620;SDS011;64574;48.506;-2.750;2023-04-25T18:06:29;7.00;;;3.03;;
75620;SDS011;64574;48.506;-2.750;2023-04-25T18:08:56;5.55;;;2.70;;
75620;SDS011;64574;48.506;-2.750;2023-04-25T18:11:23;7.75;;;2.75;;
75620;SDS011;64574;48.506;-2.750;2023-04-25T18:13:49;8.32;;;3.25;;
75620;SDS011;64574;48.506;-2.750;2023-04-25T18:16:15;8.35;;;3.10;;
75620;SDS011;64574;48.506;-2.750;2023-04-25T18:18:41;8.38;;;3.40;;
75620;SDS011;64574;48.506;-2.750;2023-04-25T18:21:08;7.82;;;3.13;;
75620;SDS011;64574;48.506;-2.750;2023-04-25T18:23:34;9.40;;;3.38;;
75620;SDS011;64574;48.506;-2.750;2023-04-25T18:26:00;5.35;;;3.00;;
75620;SDS011;64574;48.506;-2.750;2023-04-25T18:30:53;8.40;;;2.90;;
75620;SDS011;64574;48.506;-2.750;2023-04-25T18:33:19;8.35;;;3.10;;
75620;SDS011;64574;48.506;-2.750;2023-04-25T18:35:46;5.43;;;2.58;;
75620;SDS011;64574;48.506;-2.750;2023-04-25T18:38:13;8.20;;;2.92;;
75620;SDS011;64574;48.506;-2.750;2023-04-25T18:40:38;7.82;;;3.33;;
75620;SDS011;64574;48.506;-2.750;2023-04-25T18:43:04;7.47;;;3.08;;
75620;SDS011;64574;48.506;-2.750;2023-04-25T18:45:29;9.13;;;2.85;;
75620;SDS011;64574;48.506;-2.750;2023-04-25T18:47:55;6.32;;;3.13;;
75620;SDS011;64574;48.506;-2.750;2023-04-25T18:50:21;6.70;;;3.30;;
75620;SDS011;64574;48.506;-2.750;2023-04-25T18:52:47;8.05;;;3.20;;
75620;SDS011;64574;48.506;-2.750;2023-04-25T18:55:13;6.57;;;3.10;;
75620;SDS011;64574;48.506;-2.750;2023-04-25T18:57:39;8.77;;;2.88;;
75620;SDS011;64574;48.506;-2.750;2023-04-25T19:00:05;7.80;;;3.25;;
75620;SDS011;64574;48.506;-2.750;2023-04-25T19:02:31;11.10;;;3.67;;
75620;SDS011;64574;48.506;-2.750;2023-04-25T19:05:01;8.13;;;3.15;;
75620;SDS011;64574;48.506;-2.750;2023-04-25T19:07:27;6.55;;;3.00;;
75620;SDS011;64574;48.506;-2.750;2023-04-25T19:09:55;5.50;;;3.03;;
75620;SDS011;64574;48.506;-2.750;2023-04-25T19:12:21;6.50;;;3.28;;
75620;SDS011;64574;48.506;-2.750;2023-04-25T19:14:47;8.50;;;3.35;;
75620;SDS011;64574;48.506;-2.750;2023-04-25T19:17:14;9.50;;;3.90;;
75620;SDS011;64574;48.506;-2.750;2023-04-25T19:19:40;7.57;;;3.30;;
75620;SDS011;64574;48.506;-2.750;2023-04-25T19:22:05;7.72;;;3.40;;
75620;SDS011;64574;48.506;-2.750;2023-04-25T19:24:31;8.15;;;3.63;;
75620;SDS011;64574;48.506;-2.750;2023-04-25T19:26:57;7.80;;;3.47;;
75620;SDS011;64574;48.506;-2.750;2023-04-25T19:29:23;7.50;;;3.40;;
75620;SDS011;64574;48.506;-2.750;2023-04-25T19:31:48;12.20;;;4.85;;
75620;SDS011;64574;48.506;-2.750;2023-04-25T19:34:14;6.05;;;3.42;;
75620;SDS011;64574;48.506;-2.750;2023-04-25T19:36:40;7.60;;;3.78;;
75620;SDS011;64574;48.506;-2.750;2023-04-25T19:39:06;9.60;;;4.03;;
75620;SDS011;64574;48.506;-2.750;2023-04-25T19:41:33;9.25;;;4.13;;
75620;SDS011;64574;48.506;-2.750;2023-04-25T19:44:03;7.28;;;3.85;;
75620;SDS011;64574;48.506;-2.750;2023-04-25T19:46:31;7.68;;;3.95;;
75620;SDS011;64574;48.506;-2.750;2023-04-25T19:48:57;8.30;;;3.65;;
75620;SDS011;64574;48.506;-2.750;2023-04-25T19:51:23;8.98;;;3.53;;
75620;SDS011;64574;48.506;-2.750;2023-04-25T19:53:51;7.57;;;3.72;;
75620;SDS011;64574;48.506;-2.750;2023-04-25T19:56:18;7.30;;;3.08;;
75620;SDS011;64574;48.506;-2.750;2023-04-25T19:58:43;8.45;;;3.40;;
75620;SDS011;64574;48.506;-2.750;2023-04-25T20:01:09;9.38;;;3.70;;
75620;SDS011;64574;48.506;-2.750;2023-04-25T20:03:35;6.20;;;3.28;;
75620;SDS011;64574;48.506;-2.750;2023-04-25T20:06:00;11.98;;;4.03;;
75620;SDS011;64574;48.506;-2.750;2023-04-25T20:08:26;13.15;;;4.00;;
75620;SDS011;64574;48.506;-2.750;2023-04-25T20:10:52;8.95;;;3.88;;
75620;SDS011;64574;48.506;-2.750;2023-04-25T20:13:17;9.88;;;3.42;;
75620;SDS011;64574;48.506;-2.750;2023-04-25T20:15:43;9.25;;;3.35;;
75620;SDS011;64574;48.506;-2.750;2023-04-25T20:18:09;7.38;;;3.13;;
75620;SDS011;64574;48.506;-2.750;2023-04-25T20:20:35;9.68;;;3.80;;
75620;SDS011;64574;48.506;-2.750;2023-04-25T20:23:01;6.53;;;3.58;;
75620;SDS011;64574;48.506;-2.750;2023-04-25T20:25:30;6.18;;;3.58;;
75620;SDS011;64574;48.506;-2.750;2023-04-25T20:27:56;12.45;;;4.05;;
75620;SDS011;64574;48.506;-2.750;2023-04-25T20:30:22;10.18;;;3.63;;
75620;SDS011;64574;48.506;-2.750;2023-04-25T20:32:47;7.15;;;3.28;;
75620;SDS011;64574;48.506;-2.750;2023-04-25T20:35:13;7.25;;;3.17;;
75620;SDS011;64574;48.506;-2.750;2023-04-25T20:37:39;6.53;;;3.95;;
75620;SDS011;64574;48.506;-2.750;2023-04-25T20:40:06;8.10;;;3.80;;
75620;SDS011;64574;48.506;-2.750;2023-04-25T20:42:35;9.32;;;4.05;;
75620;SDS011;64574;48.506;-2.750;2023-04-25T20:45:02;6.82;;;3.42;;
75620;SDS011;64574;48.506;-2.750;2023-04-25T20:47:32;7.50;;;3.63;;
75620;SDS011;64574;48.506;-2.750;2023-04-25T20:49:58;7.55;;;3.90;;
75620;SDS011;64574;48.506;-2.750;2023-04-25T20:52:24;7.70;;;3.30;;
75620;SDS011;64574;48.506;-2.750;2023-04-25T20:54:49;6.57;;;4.00;;
75620;SDS011;64574;48.506;-2.750;2023-04-25T20:57:16;6.53;;;3.63;;
75620;SDS011;64574;48.506;-2.750;2023-04-25T20:59:42;5.55;;;3.30;;
75620;SDS011;64574;48.506;-2.750;2023-04-25T21:02:09;7.20;;;4.18;;
75620;SDS011;64574;48.506;-2.750;2023-04-25T21:04:36;6.57;;;3.95;;
75620;SDS011;64574;48.506;-2.750;2023-04-25T21:07:02;7.82;;;5.00;;
75620;SDS011;64574;48.506;-2.750;2023-04-25T21:09:27;5.97;;;3.80;;
75620;SDS011;64574;48.506;-2.750;2023-04-25T21:11:53;6.63;;;3.97;;
75620;SDS011;64574;48.506;-2.750;2023-04-25T21:14:19;7.85;;;4.20;;
75620;SDS011;64574;48.506;-2.750;2023-04-25T21:16:44;6.28;;;4.05;;
75620;SDS011;64574;48.506;-2.750;2023-04-25T21:19:10;6.47;;;3.70;;
75620;SDS011;64574;48.506;-2.750;2023-04-25T21:21:35;8.70;;;4.40;;
75620;SDS011;64574;48.506;-2.750;2023-04-25T21:24:01;6.80;;;3.95;;
75620;SDS011;64574;48.506;-2.750;2023-04-25T21:26:27;7.85;;;4.20;;
75620;SDS011;64574;48.506;-2.750;2023-04-25T21:28:53;6.60;;;4.13;;
75620;SDS011;64574;48.506;-2.750;2023-04-25T21:31:18;6.05;;;3.85;;
75620;SDS011;64574;48.506;-2.750;2023-04-25T21:33:44;7.22;;;3.78;;
75620;SDS011;64574;48.506;-2.750;2023-04-25T21:36:10;8.98;;;4.45;;
75620;SDS011;64574;48.506;-2.750;2023-04-25T21:38:36;7.93;;;4.53;;
75620;SDS011;64574;48.506;-2.750;2023-04-25T21:41:01;9.00;;;4.05;;
75620;SDS011;64574;48.506;-2.750;2023-04-25T21:43:27;7.93;;;3.97;;
75620;SDS011;64574;48.506;-2.750;2023-04-25T21:45:53;8.52;;;4.35;;
75620;SDS011;64574;48.506;-2.750;2023-04-25T21:48:18;8.20;;;4.22;;
75620;SDS011;64574;48.506;-2.750;2023-04-25T21:50:44;8.00;;;4.18;;
75620;SDS011;64574;48.506;-2.750;2023-04-25T21:53:11;5.65;;;3.50;;
75620;SDS011;64574;48.506;-2.750;2023-04-25T21:55:36;7.65;;;4.47;;
75620;SDS011;64574;48.506;-2.750;2023-04-25T21:58:02;7.05;;;4.00;;
75620;SDS011;64574;48.506;-2.750;2023-04-25T22:00:28;6.40;;;3.50;;
75620;SDS011;64574;48.506;-2.750;2023-04-25T22:02:55;6.95;;;3.20;;
75620;SDS011;64574;48.506;-2.750;2023-04-25T22:05:22;7.30;;;3.53;;
75620;SDS011;64574;48.506;-2.750;2023-04-25T22:07:50;8.57;;;3.25;;
75620;SDS011;64574;48.506;-2.750;2023-04-25T22:10:19;11.00;;;4.05;;
75620;SDS011;64574;48.506;-2.750;2023-04-25T22:12:45;8.27;;;3.60;;
75620;SDS011;64574;48.506;-2.750;2023-04-25T22:15:14;11.55;;;4.43;;
75620;SDS011;64574;48.506;-2.750;2023-04-25T22:17:45;16.35;;;4.70;;
75620;SDS011;64574;48.506;-2.750;2023-04-25T22:20:11;7.55;;;3.65;;
75620;SDS011;64574;48.506;-2.750;2023-04-25T22:22:41;6.95;;;3.97;;
75620;SDS011;64574;48.506;-2.750;2023-04-25T22:25:07;7.03;;;3.92;;
75620;SDS011;64574;48.506;-2.750;2023-04-25T22:27:33;10.25;;;4.28;;
75620;SDS011;64574;48.506;-2.750;2023-04-25T22:29:59;8.30;;;3.67;;
75620;SDS011;64574;48.506;-2.750;2023-04-25T22:32:26;7.03;;;3.42;;
75620;SDS011;64574;48.506;-2.750;2023-04-25T22:34:51;10.82;;;4.53;;
75620;SDS011;64574;48.506;-2.750;2023-04-25T22:37:17;6.53;;;3.47;;
75620;SDS011;64574;48.506;-2.750;2023-04-25T22:39:43;11.25;;;5.00;;
75620;SDS011;64574;48.506;-2.750;2023-04-25T22:42:09;10.15;;;3.95;;
75620;SDS011;64574;48.506;-2.750;2023-04-25T22:44:35;7.57;;;3.97;;
75620;SDS011;64574;48.506;-2.750;2023-04-25T22:47:01;8.32;;;4.05;;
75620;SDS011;64574;48.506;-2.750;2023-04-25T22:49:26;9.70;;;3.78;;
75620;SDS011;64574;48.506;-2.750;2023-04-25T22:51:52;5.45;;;3.55;;
75620;SDS011;64574;48.506;-2.750;2023-04-25T22:54:19;8.60;;;4.30;;
75620;SDS011;64574;48.506;-2.750;2023-04-25T22:56:45;9.55;;;5.22;;
75620;SDS011;64574;48.506;-2.750;2023-04-25T22:59:11;7.85;;;4.78;;
75620;SDS011;64574;48.506;-2.750;2023-04-25T23:01:37;8.82;;;4.07;;
75620;SDS011;64574;48.506;-2.750;2023-04-25T23:04:03;8.00;;;4.50;;
75620;SDS011;64574;48.506;-2.750;2023-04-25T23:06:29;8.73;;;4.65;;
75620;SDS011;64574;48.506;-2.750;2023-04-25T23:08:54;9.30;;;4.35;;
75620;SDS011;64574;48.506;-2.750;2023-04-25T23:11:20;7.82;;;3.78;;
75620;SDS011;64574;48.506;-2.750;2023-04-25T23:16:13;7.35;;;3.72;;
75620;SDS011;64574;48.506;-2.750;2023-04-25T23:18:39;9.57;;;4.32;;
75620;SDS011;64574;48.506;-2.750;2023-04-25T23:21:05;8.00;;;4.15;;
75620;SDS011;64574;48.506;-2.750;2023-04-25T23:23:33;8.07;;;3.97;;
75620;SDS011;64574;48.506;-2.750;2023-04-25T23:25:59;7.05;;;4.03;;
75620;SDS011;64574;48.506;-2.750;2023-04-25T23:28:25;7.18;;;4.82;;
75620;SDS011;64574;48.506;-2.750;2023-04-25T23:30:51;7.30;;;4.85;;
75620;SDS011;64574;48.506;-2.750;2023-04-25T23:33:17;7.15;;;4.07;;
75620;SDS011;64574;48.506;-2.750;2023-04-25T23:35:42;8.25;;;4.43;;
75620;SDS011;64574;48.506;-2.750;2023-04-25T23:38:08;6.70;;;4.63;;
75620;SDS011;64574;48.506;-2.750;2023-04-25T23:40:34;7.47;;;5.30;;
75620;SDS011;64574;48.506;-2.750;2023-04-25T23:42:59;8.48;;;5.32;;
75620;SDS011;64574;48.506;-2.750;2023-04-25T23:45:27;7.28;;;4.43;;
75620;SDS011;64574;48.506;-2.750;2023-04-25T23:47:53;7.53;;;4.60;;
75620;SDS011;64574;48.506;-2.750;2023-04-25T23:50:18;8.38;;;4.05;;
75620;SDS011;64574;48.506;-2.750;2023-04-25T23:52:44;5.50;;;4.10;;
75620;SDS011;64574;48.506;-2.750;2023-04-25T23:55:10;7.40;;;4.15;;
75620;SDS011;64574;48.506;-2.750;2023-04-25T23:57:35;7.70;;;4.30;;
